Time;durP1;ratioP1;P1;durP2;ratioP2;P2;SDS_P1;SDS_P2;PMS_P1;PMS_P2;Temp;Humidity;BMP_temperature;BMP_pressure;BME280_temperature;BME280_humidity;BME280_pressure;Samples;Min_cycle;Max_cycle;Signal;HPM_P1;HPM_P2
2021/04/02 00:00:45;;;;;;;13.23;7.68;;;;;;;12.48;53.92;99226.81;5051991;28;20045;-64
2021/04/02 00:03:13;;;;;;;14.55;7.20;;;;;;;12.38;53.62;99249.19;5051652;28;20049;-64
2021/04/02 00:05:39;;;;;;;11.00;7.13;;;;;;;12.29;53.48;99228.31;5051326;28;20063;-64
2021/04/02 00:08:07;;;;;;;10.40;7.43;;;;;;;12.33;53.58;99234.88;5051272;28;20052;-64
2021/04/02 00:10:43;;;;;;;15.35;6.25;;;;;;;12.28;53.45;99235.44;5051381;28;20041;-64
2021/04/02 00:13:11;;;;;;;9.32;6.28;;;;;;;12.31;53.50;99236.91;5050257;28;20053;-64
2021/04/02 00:15:38;;;;;;;8.93;6.15;;;;;;;12.26;53.31;99234.81;5051433;28;20479;-64
2021/04/02 00:18:05;;;;;;;9.43;6.03;;;;;;;12.26;53.48;99239.31;5051262;28;20255;-64
2021/04/02 00:20:32;;;;;;;10.07;6.30;;;;;;;12.28;53.31;99232.78;5051444;28;20041;-64
2021/04/02 00:22:59;;;;;;;11.02;5.93;;;;;;;12.31;53.15;99232.41;5053111;28;20045;-64
2021/04/02 00:25:27;;;;;;;11.05;6.63;;;;;;;12.26;53.29;99234.00;5053548;28;20060;-62
2021/04/02 00:27:53;;;;;;;16.08;6.22;;;;;;;12.06;53.68;99231.19;5054595;28;20411;-64
2021/04/02 00:30:24;;;;;;;11.63;5.88;;;;;;;12.09;53.84;99233.47;5054938;28;20041;-64
2021/04/02 00:32:51;;;;;;;10.48;5.65;;;;;;;12.06;53.91;99237.31;5054937;28;20056;-64
2021/04/02 00:35:18;;;;;;;11.13;6.18;;;;;;;11.87;54.14;99235.31;5054652;28;20049;-62
2021/04/02 00:37:45;;;;;;;10.65;5.85;;;;;;;11.92;54.31;99237.38;5054529;28;20048;-63
2021/04/02 00:40:17;;;;;;;10.48;5.72;;;;;;;11.87;54.51;99235.31;5054570;28;20055;-64
2021/04/02 00:42:45;;;;;;;9.40;5.75;;;;;;;11.77;54.47;99232.97;5054662;28;20534;-64
2021/04/02 00:45:13;;;;;;;10.63;5.88;;;;;;;11.74;54.69;99229.88;5053132;28;20049;-64
2021/04/02 00:47:40;;;;;;;9.32;6.07;;;;;;;11.75;54.48;99232.31;5054411;28;20052;-64
2021/04/02 00:50:13;;;;;;;10.15;5.70;;;;;;;11.74;54.83;99232.50;5054491;28;20045;-64
2021/04/02 00:52:39;;;;;;;8.85;5.32;;;;;;;11.61;54.86;99233.22;5054919;28;20099;-64
2021/04/02 00:55:08;;;;;;;7.95;5.63;;;;;;;11.53;55.38;99230.69;5054365;28;20491;-65
2021/04/02 00:57:35;;;;;;;11.25;5.60;;;;;;;11.53;55.36;99228.03;5052985;28;20140;-64
2021/04/02 01:00:05;;;;;;;8.48;4.85;;;;;;;11.42;55.70;99234.63;5052846;28;20156;-64
2021/04/02 01:02:32;;;;;;;12.20;6.10;;;;;;;11.36;55.75;99236.22;5054338;28;20048;-64
2021/04/02 01:05:00;;;;;;;10.07;6.05;;;;;;;11.38;55.86;99242.13;5054211;28;20037;-63
2021/04/02 01:07:27;;;;;;;10.95;6.20;;;;;;;11.36;55.96;99238.03;5056029;28;20052;-64
2021/04/02 01:09:55;;;;;;;10.27;7.30;;;;;;;11.33;56.27;99236.56;5054406;28;20132;-64
2021/04/02 01:12:22;;;;;;;10.65;7.00;;;;;;;11.18;56.37;99238.44;5053391;28;20071;-64
2021/04/02 01:14:49;;;;;;;12.48;6.90;;;;;;;11.04;56.69;99241.94;5053306;28;20495;-63
2021/04/02 01:17:22;;;;;;;10.15;6.55;;;;;;;10.93;56.27;99253.78;5052673;28;20038;-64
2021/04/02 01:19:55;;;;;;;9.60;6.28;;;;;;;10.80;56.06;99254.44;5055177;28;20052;-64
2021/04/02 01:22:25;;;;;;;9.77;6.57;;;;;;;10.70;56.17;99256.56;5053926;28;20037;-64
2021/04/02 01:25:11;;;;;;;12.68;7.50;;;;;;;10.72;55.94;99265.13;5052830;28;20151;-64
2021/04/02 01:27:52;;;;;;;10.85;6.70;;;;;;;10.64;55.47;99266.00;5054132;28;20045;-64
2021/04/02 01:30:20;;;;;;;11.15;6.32;;;;;;;10.52;54.96;99262.19;5054153;28;20414;-64
2021/04/02 01:32:51;;;;;;;8.32;6.15;;;;;;;10.39;54.58;99264.63;5053693;28;20059;-64
2021/04/02 01:35:25;;;;;;;11.10;5.97;;;;;;;10.31;54.42;99262.06;5053058;28;20458;-64
2021/04/02 01:37:55;;;;;;;8.95;5.85;;;;;;;10.21;54.60;99272.88;5053954;28;20049;-64
2021/04/02 01:40:24;;;;;;;10.40;5.68;;;;;;;10.21;54.21;99266.75;5055689;28;20041;-65
2021/04/02 01:42:53;;;;;;;9.45;6.15;;;;;;;10.10;54.23;99266.19;5056005;28;20041;-64
2021/04/02 01:45:25;;;;;;;8.65;5.55;;;;;;;10.01;54.10;99269.88;5053711;28;20515;-64
2021/04/02 01:47:55;;;;;;;10.48;5.25;;;;;;;9.90;54.30;99270.31;5051972;28;20049;-64
2021/04/02 01:50:22;;;;;;;9.25;5.88;;;;;;;9.84;54.28;99271.03;5051818;28;20380;-64
2021/04/02 01:52:50;;;;;;;9.10;5.20;;;;;;;9.78;54.14;99272.53;5051835;28;20095;-64
2021/04/02 01:55:17;;;;;;;9.52;5.45;;;;;;;9.72;54.12;99275.88;5054324;28;20041;-64
2021/04/02 01:57:49;;;;;;;11.52;5.32;;;;;;;9.65;54.02;99277.56;5068075;28;20041;-64
2021/04/02 02:00:25;;;;;;;8.52;5.72;;;;;;;9.62;53.77;99280.56;5067030;28;20112;-64
2021/04/02 02:02:55;;;;;;;8.82;5.20;;;;;;;9.51;53.32;99287.06;5053185;28;20071;-64
2021/04/02 02:05:24;;;;;;;8.15;5.50;;;;;;;9.37;53.59;99291.25;5053057;28;20033;-63
2021/04/02 02:07:55;;;;;;;9.35;5.07;;;;;;;9.34;53.71;99290.78;5051538;28;20072;-64
2021/04/02 02:10:23;;;;;;;11.52;5.28;;;;;;;9.32;53.30;99298.06;5051662;28;20144;-63
2021/04/02 02:12:54;;;;;;;9.38;5.30;;;;;;;9.24;53.73;99300.72;5051451;28;20060;-64
2021/04/02 02:15:45;;;;;;;9.10;5.32;;;;;;;9.20;53.55;99302.06;5052525;28;20055;-64
2021/04/02 02:18:17;;;;;;;11.38;5.95;;;;;;;9.16;53.68;99307.69;5051474;28;20071;-64
2021/04/02 02:20:48;;;;;;;7.95;4.97;;;;;;;9.14;53.72;99301.75;5052603;28;20041;-64
2021/04/02 02:23:20;;;;;;;7.28;5.05;;;;;;;9.07;53.74;99311.34;5051329;28;20049;-64
2021/04/02 02:25:48;;;;;;;10.77;5.20;;;;;;;9.03;53.68;99314.50;5052403;28;20051;-64
2021/04/02 02:28:17;;;;;;;14.20;6.03;;;;;;;9.00;53.76;99307.72;5050933;28;20458;-64
2021/04/02 02:30:45;;;;;;;18.48;6.13;;;;;;;8.96;53.78;99300.34;5052422;28;20056;-64
2021/04/02 02:33:35;;;;;;;10.15;5.20;;;;;;;8.91;53.51;99308.75;5052998;28;20431;-64
2021/04/02 02:36:10;;;;;;;10.68;5.40;;;;;;;8.81;53.76;99313.38;5054608;28;20493;-64
2021/04/02 02:38:41;;;;;;;7.60;5.47;;;;;;;8.81;53.66;99308.94;5051000;28;20083;-64
2021/04/02 02:41:09;;;;;;;9.57;5.60;;;;;;;8.84;53.80;99305.16;5051055;28;20071;-64
2021/04/02 02:43:39;;;;;;;7.68;5.35;;;;;;;8.83;53.62;99311.41;5051051;28;20041;-64
2021/04/02 02:46:06;;;;;;;8.55;5.72;;;;;;;8.78;53.46;99300.56;5049801;28;20049;-64
2021/04/02 02:48:34;;;;;;;9.95;6.20;;;;;;;8.73;53.58;99303.69;5051911;28;20037;-64
2021/04/02 02:51:04;;;;;;;10.85;5.70;;;;;;;8.67;53.53;99307.81;5050925;28;20045;-64
2021/04/02 02:53:33;;;;;;;7.65;5.05;;;;;;;8.68;53.72;99304.19;5052271;28;20048;-63
2021/04/02 02:56:07;;;;;;;8.75;5.28;;;;;;;8.63;53.70;99300.41;5050752;28;20048;-64
2021/04/02 02:58:39;;;;;;;11.57;5.25;;;;;;;8.63;53.89;99300.41;5050450;28;20049;-64
2021/04/02 03:01:08;;;;;;;10.27;5.43;;;;;;;8.64;53.85;99302.88;5050676;28;20064;-64
2021/04/02 03:03:39;;;;;;;7.78;5.43;;;;;;;8.62;53.77;99299.59;5050725;28;20095;-61
2021/04/02 03:06:12;;;;;;;7.45;5.38;;;;;;;8.68;53.51;99295.47;5050610;28;20048;-62
2021/04/02 03:08:45;;;;;;;12.18;5.25;;;;;;;8.60;53.34;99296.28;5051953;28;20041;-62
2021/04/02 03:11:17;;;;;;;6.30;5.05;;;;;;;8.56;53.53;99295.00;5050640;28;20049;-62
2021/04/02 03:13:49;;;;;;;12.25;6.18;;;;;;;8.56;53.62;99287.09;5051905;28;20047;-62
2021/04/02 03:16:18;;;;;;;8.23;5.45;;;;;;;8.54;53.51;99293.53;5050603;28;20077;-60
2021/04/02 03:18:50;;;;;;;10.40;5.80;;;;;;;8.47;53.39;99289.91;5050629;28;20060;-62
2021/04/02 03:21:20;;;;;;;9.52;5.72;;;;;;;8.36;53.72;99288.41;5050616;28;20044;-63
2021/04/02 03:23:52;;;;;;;12.45;6.07;;;;;;;8.26;53.99;99293.84;5050398;28;20102;-63
2021/04/02 03:26:20;;;;;;;10.80;5.65;;;;;;;8.24;54.02;99282.63;5051568;28;20511;-62
2021/04/02 03:28:49;;;;;;;8.32;5.70;;;;;;;8.23;54.03;99296.81;5051484;28;20064;-62
2021/04/02 03:31:18;;;;;;;6.15;5.40;;;;;;;8.09;54.35;99294.84;5053752;28;20067;-64
2021/04/02 03:33:51;;;;;;;8.82;5.97;;;;;;;8.13;54.33;99288.25;5058984;28;20068;-61
2021/04/02 03:36:28;;;;;;;11.00;6.05;;;;;;;8.14;54.31;99303.06;5050851;28;20056;-65
2021/04/02 03:39:02;;;;;;;10.90;6.40;;;;;;;8.22;54.37;99297.81;5050125;28;20052;-65
2021/04/02 03:41:35;;;;;;;12.32;6.60;;;;;;;8.08;54.40;99303.72;5050140;28;20098;-65
2021/04/02 03:44:08;;;;;;;9.00;6.22;;;;;;;8.00;54.61;99294.03;5051466;28;20057;-65
2021/04/02 03:46:38;;;;;;;8.10;5.55;;;;;;;7.88;54.94;99290.06;5050116;28;20041;-65
2021/04/02 03:49:13;;;;;;;10.05;5.90;;;;;;;7.66;55.52;99297.59;5050081;28;20044;-65
2021/04/02 03:51:43;;;;;;;8.73;6.38;;;;;;;7.53;55.60;99299.03;5050227;28;20045;-65
2021/04/02 03:54:15;;;;;;;11.82;6.30;;;;;;;7.51;55.94;99307.09;5050234;28;20339;-65
2021/04/02 03:56:45;;;;;;;12.05;6.95;;;;;;;7.49;56.01;99309.06;5050053;28;20400;-65
2021/04/02 03:59:17;;;;;;;10.27;6.38;;;;;;;7.54;55.91;99306.75;5053787;28;20045;-65
2021/04/02 04:01:53;;;;;;;10.38;6.18;;;;;;;7.56;55.67;99314.50;5054006;28;20049;-65
2021/04/02 04:04:26;;;;;;;8.38;6.05;;;;;;;7.61;56.02;99310.41;5053713;28;20072;-65
2021/04/02 04:06:57;;;;;;;9.32;5.93;;;;;;;7.54;55.85;99306.75;5053797;28;20069;-65
2021/04/02 04:09:27;;;;;;;12.80;6.40;;;;;;;7.38;56.15;99314.59;5053555;28;20053;-63
2021/04/02 04:12:02;;;;;;;8.98;5.88;;;;;;;7.28;56.49;99317.38;5054894;28;20570;-63
2021/04/02 04:14:53;;;;;;;8.13;6.07;;;;;;;7.30;56.54;99317.22;5053462;28;20061;-64
2021/04/02 04:17:27;;;;;;;10.30;6.35;;;;;;;7.32;56.59;99315.25;5053401;28;20529;-65
2021/04/02 04:20:05;;;;;;;9.32;5.88;;;;;;;7.17;56.92;99315.03;5053414;28;20052;-65
2021/04/02 04:22:41;;;;;;;7.53;5.88;;;;;;;7.11;57.14;99324.38;5053450;28;20052;-65
2021/04/02 04:25:09;;;;;;;13.38;5.93;;;;;;;6.95;57.38;99316.41;5054602;28;20407;-65
2021/04/02 04:27:39;;;;;;;9.65;5.93;;;;;;;6.91;57.71;99315.09;5054657;28;20395;-65
2021/04/02 04:30:10;;;;;;;9.82;5.78;;;;;;;6.99;57.44;99315.13;5054489;28;20040;-65
2021/04/02 04:32:39;;;;;;;9.60;5.97;;;;;;;7.02;57.66;99312.19;5054502;28;20055;-65
2021/04/02 04:35:11;;;;;;;12.13;7.25;;;;;;;6.91;57.75;99305.41;5054489;28;20045;-65
2021/04/02 04:37:39;;;;;;;11.15;6.43;;;;;;;6.89;57.66;99306.53;5054379;28;20037;-65
2021/04/02 04:40:11;;;;;;;11.75;6.07;;;;;;;6.88;57.79;99303.06;5054618;28;20037;-65
2021/04/02 04:42:39;;;;;;;13.55;7.28;;;;;;;6.91;57.94;99313.28;5054405;28;20495;-65
2021/04/02 04:45:08;;;;;;;11.90;8.52;;;;;;;7.02;57.95;99304.31;5054250;28;20043;-65
2021/04/02 04:47:36;;;;;;;13.45;7.18;;;;;;;7.06;57.68;99307.41;5054149;28;20052;-65
2021/04/02 04:50:03;;;;;;;10.48;6.72;;;;;;;7.03;57.56;99313.00;5053099;28;20045;-65
2021/04/02 04:52:32;;;;;;;9.45;6.40;;;;;;;6.99;57.67;99309.06;5054152;28;20041;-65
2021/04/02 04:55:02;;;;;;;14.90;6.47;;;;;;;6.92;57.77;99317.53;5054288;28;20048;-65
2021/04/02 04:57:33;;;;;;;10.52;6.55;;;;;;;6.79;58.21;99321.59;5054220;28;20037;-66
2021/04/02 05:00:01;;;;;;;9.05;6.85;;;;;;;6.77;58.16;99323.53;5054213;28;20041;-65
2021/04/02 05:02:30;;;;;;;11.70;6.32;;;;;;;6.77;58.26;99321.72;5054069;28;20041;-65
2021/04/02 05:05:00;;;;;;;11.30;6.47;;;;;;;6.76;58.24;99327.16;5053930;28;20158;-65
2021/04/02 05:07:30;;;;;;;10.45;6.70;;;;;;;6.85;58.53;99328.84;5053997;28;20426;-65
2021/04/02 05:09:59;;;;;;;12.90;7.32;;;;;;;6.91;58.12;99325.59;5051382;28;20495;-65
2021/04/02 05:12:27;;;;;;;11.68;7.32;;;;;;;6.83;58.07;99330.81;5054020;28;20124;-64
2021/04/02 05:14:54;;;;;;;9.43;6.78;;;;;;;6.72;58.34;99324.00;5053672;28;20055;-64
2021/04/02 05:17:22;;;;;;;12.60;6.50;;;;;;;6.81;58.63;99330.13;5053612;28;20037;-64
2021/04/02 05:19:50;;;;;;;12.98;6.68;;;;;;;6.79;58.49;99325.03;5054220;28;20033;-64
2021/04/02 05:22:17;;;;;;;14.88;7.47;;;;;;;6.87;58.16;99332.16;5054474;28;20044;-65
2021/04/02 05:24:44;;;;;;;9.98;7.82;;;;;;;6.93;57.93;99323.63;5053941;28;20032;-64
2021/04/02 05:27:12;;;;;;;11.88;8.18;;;;;;;6.92;57.91;99325.44;5053844;28;20041;-64
2021/04/02 05:29:38;;;;;;;11.02;7.00;;;;;;;6.83;58.19;99326.38;5052172;28;20067;-65
2021/04/02 05:32:06;;;;;;;8.90;7.10;;;;;;;6.85;58.29;99327.03;5052216;28;20559;-65
2021/04/02 05:34:33;;;;;;;14.05;7.65;;;;;;;6.96;58.22;99323.31;5052108;28;20539;-65
2021/04/02 05:37:02;;;;;;;11.60;8.63;;;;;;;6.95;58.09;99329.56;5053347;28;20041;-65
2021/04/02 05:39:29;;;;;;;9.32;8.07;;;;;;;6.91;58.08;99330.84;5053967;28;20079;-64
2021/04/02 05:42:01;;;;;;;12.45;8.27;;;;;;;6.87;58.25;99329.53;5055571;28;20049;-65
2021/04/02 05:44:32;;;;;;;10.30;8.23;;;;;;;6.87;58.46;99337.41;5056514;28;20036;-64
2021/04/02 05:47:01;;;;;;;10.25;8.43;;;;;;;6.91;58.37;99336.94;5053886;28;20403;-64
2021/04/02 05:49:28;;;;;;;11.75;8.75;;;;;;;6.95;58.19;99337.44;5053306;28;20052;-65
2021/04/02 05:51:57;;;;;;;10.75;7.82;;;;;;;7.02;58.31;99335.84;5053197;28;20450;-64
2021/04/02 05:54:28;;;;;;;10.65;7.50;;;;;;;7.14;58.10;99347.75;5053170;28;20511;-65
2021/04/02 05:56:55;;;;;;;9.25;8.23;;;;;;;7.13;57.72;99350.50;5053601;28;20059;-65
2021/04/02 05:59:22;;;;;;;10.73;8.15;;;;;;;7.08;57.74;99347.53;5053596;28;20438;-65
2021/04/02 06:01:50;;;;;;;9.95;8.30;;;;;;;6.98;57.97;99352.91;5053619;28;20037;-65
2021/04/02 06:04:18;;;;;;;12.82;8.52;;;;;;;7.02;58.04;99356.88;5053169;28;20529;-65
2021/04/02 06:06:45;;;;;;;11.52;8.35;;;;;;;6.99;57.89;99356.38;5056624;28;20037;-65
2021/04/02 06:09:13;;;;;;;11.20;8.07;;;;;;;7.01;57.99;99360.47;5066531;28;20087;-65
2021/04/02 06:11:40;;;;;;;14.77;8.32;;;;;;;6.99;58.01;99359.81;5066795;28;20048;-64
2021/04/02 06:14:08;;;;;;;12.68;8.57;;;;;;;7.11;58.09;99360.38;5054610;28;20051;-65
2021/04/02 06:16:35;;;;;;;10.50;8.52;;;;;;;7.21;57.86;99358.44;5053290;28;20458;-65
2021/04/02 06:19:07;;;;;;;11.20;8.55;;;;;;;7.21;57.58;99361.06;5053217;28;20044;-65
2021/04/02 06:21:45;;;;;;;11.73;8.15;;;;;;;7.18;57.61;99364.00;5053129;28;20043;-65
2021/04/02 06:24:13;;;;;;;9.73;7.95;;;;;;;7.13;57.67;99366.28;5053085;28;20056;-64
2021/04/02 06:26:40;;;;;;;11.75;9.10;;;;;;;7.18;57.60;99364.00;5053351;28;20478;-65
2021/04/02 06:29:07;;;;;;;9.25;7.97;;;;;;;7.23;57.66;99367.00;5053077;28;20090;-65
2021/04/02 06:31:35;;;;;;;12.57;8.35;;;;;;;7.34;57.49;99365.88;5053268;28;20045;-64
2021/04/02 06:34:06;;;;;;;9.23;8.20;;;;;;;7.47;57.39;99376.81;5052764;28;20063;-64
2021/04/02 06:36:34;;;;;;;13.18;8.73;;;;;;;7.53;57.25;99377.97;5052872;28;20076;-64
2021/04/02 06:39:03;;;;;;;11.38;8.15;;;;;;;7.57;56.90;99374.03;5052535;28;20065;-64
2021/04/02 06:41:32;;;;;;;11.25;7.68;;;;;;;7.60;56.64;99376.34;5052800;28;20069;-64
2021/04/02 06:44:01;;;;;;;11.93;8.05;;;;;;;7.58;56.65;99379.13;5052993;28;20041;-65
2021/04/02 06:46:30;;;;;;;9.05;7.60;;;;;;;7.69;56.51;99380.66;5052429;28;20067;-65
2021/04/02 06:49:11;;;;;;;11.18;8.10;;;;;;;7.62;56.18;99379.63;5052706;28;20098;-65
2021/04/02 06:51:41;;;;;;;9.98;8.68;;;;;;;7.60;56.09;99382.44;5052227;28;20120;-65
2021/04/02 06:54:21;;;;;;;10.70;8.30;;;;;;;7.64;56.40;99388.22;5050768;28;20045;-65
2021/04/02 06:56:55;;;;;;;8.77;7.88;;;;;;;7.64;56.39;99383.78;5052004;28;20045;-65
2021/04/02 06:59:23;;;;;;;;;;;;;;;7.74;56.21;99381.00;5052467;28;20060;-65
2021/04/02 07:01:53;;;;;;;9.45;8.27;;;;;;;7.86;56.08;99384.97;5052019;28;20024;-65
2021/04/02 07:04:24;;;;;;;10.10;7.55;;;;;;;8.04;55.85;99386.66;5052166;28;20040;-65
2021/04/02 07:06:52;;;;;;;10.35;7.50;;;;;;;8.09;55.70;99377.31;5053017;28;20501;-64
2021/04/02 07:09:20;;;;;;;10.82;7.72;;;;;;;8.09;55.50;99382.56;5052184;28;20056;-64
2021/04/02 07:11:51;;;;;;;12.85;8.02;;;;;;;8.16;54.91;99383.56;5052591;28;20052;-64
2021/04/02 07:14:18;;;;;;;9.05;7.45;;;;;;;8.13;54.65;99388.34;5052101;28;20051;-65
2021/04/02 07:16:45;;;;;;;12.35;7.30;;;;;;;7.98;54.85;99384.69;5051875;28;20045;-65
2021/04/02 07:19:13;;;;;;;11.10;7.70;;;;;;;7.93;55.37;99395.69;5051812;28;20037;-64
2021/04/02 07:21:42;;;;;;;9.43;7.60;;;;;;;7.90;55.56;99391.56;5051618;28;20116;-66
2021/04/02 07:24:12;;;;;;;11.40;8.00;;;;;;;8.03;55.36;99390.28;5051777;28;20049;-64
2021/04/02 07:26:39;;;;;;;12.18;7.40;;;;;;;8.11;55.09;99398.19;5052044;28;20103;-64
2021/04/02 07:29:06;;;;;;;9.85;7.90;;;;;;;8.12;54.70;99391.94;5051718;28;20060;-64
2021/04/02 07:31:34;;;;;;;14.30;7.63;;;;;;;8.19;54.88;99388.50;5052423;28;20426;-64
2021/04/02 07:34:01;;;;;;;8.38;7.20;;;;;;;8.36;54.74;99385.88;5054646;28;20053;-65
2021/04/02 07:36:28;;;;;;;8.75;7.45;;;;;;;8.44;54.20;99385.91;5055724;28;20125;-65
2021/04/02 07:38:56;;;;;;;7.75;6.95;;;;;;;8.38;54.09;99399.75;5055582;28;20045;-65
2021/04/02 07:41:23;;;;;;;18.98;7.57;;;;;;;8.45;53.94;99395.47;5055578;28;20040;-64
2021/04/02 07:43:52;;;;;;;9.02;7.55;;;;;;;8.48;54.16;99395.13;5055669;28;20067;-65
2021/04/02 07:46:21;;;;;;;9.13;7.57;;;;;;;8.60;53.82;99390.34;5055428;28;20033;-65
2021/04/02 07:48:49;;;;;;;10.35;7.85;;;;;;;8.65;53.50;99393.31;5055533;28;20401;-64
2021/04/02 07:51:16;;;;;;;9.35;7.55;;;;;;;8.61;53.19;99389.34;5055153;28;20048;-64
2021/04/02 07:54:00;;;;;;;9.95;7.07;;;;;;;8.72;53.02;99390.84;5055457;28;20491;-65
2021/04/02 07:56:34;;;;;;;12.52;9.02;;;;;;;8.77;53.49;99389.34;5055444;28;20044;-64
2021/04/02 07:59:05;;;;;;;18.58;12.60;;;;;;;8.85;53.30;99393.78;5055429;28;20594;-65
2021/04/02 08:01:32;;;;;;;9.35;7.80;;;;;;;9.02;52.58;99397.22;5055484;28;20418;-64
2021/04/02 08:04:04;;;;;;;10.10;7.43;;;;;;;8.90;51.77;99399.41;5055854;28;20033;-64
2021/04/02 08:06:34;;;;;;;8.73;7.85;;;;;;;8.82;52.27;99392.31;5055123;28;20052;-64
2021/04/02 08:09:03;;;;;;;10.25;8.93;;;;;;;8.89;51.34;99392.47;5055155;28;20051;-64
2021/04/02 08:11:32;;;;;;;10.00;7.85;;;;;;;8.91;50.76;99388.69;5055518;28;20422;-65
2021/04/02 08:14:01;;;;;;;9.90;8.30;;;;;;;8.90;50.35;99397.59;5055519;28;20096;-65
2021/04/02 08:16:40;;;;;;;9.75;8.15;;;;;;;8.65;51.52;99396.78;5054926;28;20040;-65
2021/04/02 08:19:09;;;;;;;9.15;8.15;;;;;;;8.96;51.17;99395.25;5054774;28;20037;-65
2021/04/02 08:21:37;;;;;;;11.70;7.75;;;;;;;9.00;50.35;99396.56;5054772;28;20048;-64
2021/04/02 08:24:07;;;;;;;8.05;7.25;;;;;;;8.98;50.12;99402.03;5054707;28;20563;-64
2021/04/02 08:26:36;;;;;;;8.88;6.85;;;;;;;8.98;49.65;99401.19;5054749;28;20044;-64
2021/04/02 08:29:04;;;;;;;8.57;7.57;;;;;;;8.87;49.33;99399.72;5054892;28;20146;-64
2021/04/02 08:31:31;;;;;;;9.38;7.13;;;;;;;8.80;48.98;99396.09;5054787;28;20036;-64
2021/04/02 08:33:58;;;;;;;8.43;7.22;;;;;;;8.81;49.24;99408.28;5054529;28;20067;-64
2021/04/02 08:36:26;;;;;;;8.75;7.90;;;;;;;8.86;49.34;99403.38;5054785;28;20045;-64
2021/04/02 08:38:54;;;;;;;8.82;7.40;;;;;;;8.95;49.76;99402.34;5055097;28;20045;-64
2021/04/02 08:41:24;;;;;;;8.05;7.22;;;;;;;9.18;48.70;99407.72;5054886;28;20037;-65
2021/04/02 08:43:52;;;;;;;9.25;7.80;;;;;;;9.16;48.11;99415.00;5061300;28;20055;-64
2021/04/02 08:46:32;;;;;;;9.52;7.60;;;;;;;8.99;48.79;99403.66;5065350;28;20045;-64
2021/04/02 08:48:59;;;;;;;9.50;7.55;;;;;;;9.16;48.56;99407.91;5074141;28;20070;-62
2021/04/02 08:51:27;;;;;;;7.95;7.05;;;;;;;9.30;47.96;99409.00;5076402;28;20053;-64
2021/04/02 08:53:54;;;;;;;8.85;7.32;;;;;;;9.36;47.59;99412.81;5077475;28;20053;-61
2021/04/02 08:56:28;;;;;;;10.13;8.88;;;;;;;9.42;47.99;99409.47;5065904;28;20045;-66
2021/04/02 08:58:55;;;;;;;9.93;8.13;;;;;;;9.47;47.05;99401.03;5067884;28;20043;-64
2021/04/02 09:01:22;;;;;;;7.40;6.65;;;;;;;9.43;46.52;99414.59;5068435;28;20071;-66
2021/04/02 09:03:49;;;;;;;9.70;7.93;;;;;;;9.41;47.44;99406.03;5066603;28;20045;-66
2021/04/02 09:06:17;;;;;;;8.27;7.18;;;;;;;9.45;47.75;99406.50;5065283;28;20052;-65
2021/04/02 09:08:44;;;;;;;9.52;7.50;;;;;;;9.59;47.62;99404.97;5066249;28;20045;-66
2021/04/02 09:11:14;;;;;;;7.53;6.40;;;;;;;9.66;46.61;99404.09;5064449;28;20045;-66
2021/04/02 09:13:44;;;;;;;13.30;7.28;;;;;;;9.65;46.33;99414.84;5065231;28;20108;-65
2021/04/02 09:16:14;;;;;;;7.45;6.63;;;;;;;9.69;46.47;99408.22;5067182;28;20048;-65
2021/04/02 09:18:49;;;;;;;8.07;7.28;;;;;;;9.68;46.65;99406.59;5066756;28;20399;-67
2021/04/02 09:21:18;;;;;;;9.73;7.70;;;;;;;9.63;46.76;99403.63;5066383;28;20064;-66
2021/04/02 09:23:47;;;;;;;9.02;7.97;;;;;;;9.68;46.99;99409.22;5068935;28;20415;-66
2021/04/02 09:26:15;;;;;;;7.93;7.22;;;;;;;9.31;47.72;99410.69;5068664;28;20040;-66
2021/04/02 09:28:43;;;;;;;13.65;7.32;;;;;;;9.54;47.19;99415.22;5066722;28;20049;-65
2021/04/02 09:31:14;;;;;;;8.32;7.50;;;;;;;9.55;47.43;99407.13;5070006;28;20123;-66
2021/04/02 09:33:42;;;;;;;8.30;7.15;;;;;;;9.57;47.40;99404.31;5070662;28;20088;-66
2021/04/02 09:36:09;;;;;;;12.65;8.43;;;;;;;9.72;47.37;99407.88;5068920;28;20096;-67
2021/04/02 09:38:36;;;;;;;11.57;9.82;;;;;;;9.72;47.06;99413.16;5071530;28;20101;-65
2021/04/02 09:41:03;;;;;;;16.50;10.52;;;;;;;9.60;47.16;99406.63;5071275;28;20140;-66
2021/04/02 09:43:41;;;;;;;9.32;8.10;;;;;;;9.80;46.84;99401.75;5069652;28;20060;-66
2021/04/02 09:46:12;;;;;;;7.97;7.15;;;;;;;9.92;46.49;99406.47;5071607;28;20048;-65
2021/04/02 09:48:39;;;;;;;7.85;7.15;;;;;;;9.99;46.61;99408.41;5070601;28;20052;-66
2021/04/02 09:51:07;;;;;;;8.45;7.50;;;;;;;10.06;46.31;99407.53;5066888;28;20105;-66
2021/04/02 09:53:34;;;;;;;8.82;6.80;;;;;;;10.12;46.47;99411.28;5068168;28;20116;-67
2021/04/02 09:56:01;;;;;;;11.70;7.72;;;;;;;10.07;46.34;99406.53;5065944;28;20048;-66
2021/04/02 09:58:28;;;;;;;12.95;8.90;;;;;;;10.12;46.40;99416.56;5066870;28;20041;-67
2021/04/02 10:00:55;;;;;;;9.15;8.25;;;;;;;10.26;46.66;99409.75;5067179;28;20037;-64
2021/04/02 10:03:26;;;;;;;12.23;10.23;;;;;;;10.41;45.76;99411.47;5065599;28;20073;-65
2021/04/02 10:05:53;;;;;;;15.65;13.98;;;;;;;10.55;45.78;99409.06;5063346;28;20044;-64
2021/04/02 10:08:20;;;;;;;8.88;6.93;;;;;;;10.34;45.45;99417.63;5060157;28;20562;-65
2021/04/02 10:10:46;;;;;;;7.70;6.90;;;;;;;10.28;45.64;99408.56;5058433;28;20056;-64
2021/04/02 10:13:13;;;;;;;7.90;7.10;;;;;;;10.29;46.03;99404.94;5061722;28;20044;-65
2021/04/02 10:15:41;;;;;;;10.43;9.25;;;;;;;10.40;45.24;99409.81;5062232;28;20064;-66
2021/04/02 10:18:08;;;;;;;22.08;19.42;;;;;;;10.61;45.03;99403.03;5062010;28;20041;-66
2021/04/02 10:20:35;;;;;;;8.85;7.95;;;;;;;10.72;44.91;99399.16;5060839;28;20048;-66
2021/04/02 10:23:02;;;;;;;8.77;7.68;;;;;;;10.66;45.09;99398.06;5061322;28;20037;-66
2021/04/02 10:25:29;;;;;;;9.88;8.43;;;;;;;10.72;44.78;99397.31;5060779;28;20048;-65
2021/04/02 10:27:56;;;;;;;8.00;7.22;;;;;;;10.40;45.19;99391.31;5064351;28;20053;-66
2021/04/02 10:30:26;;;;;;;50.95;37.20;;;;;;;10.71;44.81;99389.59;5064366;28;20037;-66
2021/04/02 10:32:55;;;;;;;24.60;17.48;;;;;;;10.91;44.39;99383.59;5061604;28;20495;-64
2021/04/02 10:35:22;;;;;;;41.60;29.83;;;;;;;11.01;44.23;99379.88;5062575;28;20118;-66
2021/04/02 10:37:50;;;;;;;12.25;10.07;;;;;;;11.01;44.15;99378.03;5070124;28;20037;-66
2021/04/02 10:40:18;;;;;;;39.15;26.58;;;;;;;11.13;43.64;99376.59;5070951;28;20063;-66
2021/04/02 10:42:45;;;;;;;8.95;7.90;;;;;;;11.27;43.20;99382.09;5069406;28;20069;-66
2021/04/02 10:45:12;;;;;;;21.00;15.55;;;;;;;11.02;43.82;99366.47;5064711;28;20048;-64
2021/04/02 10:47:39;;;;;;;8.90;7.65;;;;;;;10.73;44.16;99383.09;5065749;28;20093;-66
2021/04/02 10:50:21;;;;;;;10.48;9.38;;;;;;;11.00;43.93;99378.22;5066814;28;20069;-64
2021/04/02 10:52:48;;;;;;;9.93;7.82;;;;;;;11.19;43.63;99369.75;5067723;28;20045;-65
2021/04/02 10:55:16;;;;;;;9.32;7.90;;;;;;;11.34;43.59;99372.38;5052261;28;20072;-63
2021/04/02 10:57:43;;;;;;;9.35;7.88;;;;;;;11.34;43.44;99372.38;5051827;28;20040;-64
2021/04/02 11:00:13;;;;;;;8.40;7.55;;;;;;;11.39;43.71;99362.91;5052301;28;20077;-64
2021/04/02 11:02:40;;;;;;;9.48;7.72;;;;;;;11.33;43.62;99363.63;5053113;28;20043;-64
2021/04/02 11:05:09;;;;;;;8.40;7.63;;;;;;;10.98;44.43;99362.56;5051992;28;20064;-64
2021/04/02 11:07:36;;;;;;;9.50;7.90;;;;;;;11.01;44.31;99356.06;5051319;28;20098;-64
2021/04/02 11:10:05;;;;;;;9.20;7.32;;;;;;;11.03;43.88;99360.16;5052098;28;20512;-64
2021/04/02 11:12:33;;;;;;;10.05;7.85;;;;;;;10.95;43.94;99356.78;5051012;28;20045;-64
2021/04/02 11:15:00;;;;;;;8.45;7.40;;;;;;;10.81;44.41;99355.75;5061446;28;20037;-67
2021/04/02 11:17:27;;;;;;;9.38;7.25;;;;;;;11.12;44.36;99360.91;5060680;28;20044;-67
2021/04/02 11:19:56;;;;;;;8.95;8.05;;;;;;;11.04;44.18;99353.06;5061941;28;20047;-66
2021/04/02 11:22:26;;;;;;;8.52;7.72;;;;;;;10.85;44.04;99352.56;5063504;28;20053;-65
2021/04/02 11:24:56;;;;;;;9.07;7.38;;;;;;;10.78;44.50;99353.50;5060737;28;20037;-64
2021/04/02 11:27:23;;;;;;;9.38;8.30;;;;;;;10.64;44.39;99355.09;5064310;28;20037;-65
2021/04/02 11:29:55;;;;;;;8.75;7.80;;;;;;;10.78;44.36;99354.31;5057768;28;20045;-66
2021/04/02 11:32:24;;;;;;;8.13;7.35;;;;;;;10.83;44.06;99351.13;5061783;28;20129;-65
2021/04/02 11:34:52;;;;;;;8.55;7.72;;;;;;;10.76;44.19;99355.47;5065539;28;20056;-66
2021/04/02 11:37:19;;;;;;;9.27;8.27;;;;;;;10.88;44.11;99348.75;5065471;28;20049;-65
2021/04/02 11:39:47;;;;;;;8.63;7.82;;;;;;;11.17;44.13;99337.34;5065585;28;20502;-66
2021/04/02 11:42:14;;;;;;;8.77;7.97;;;;;;;11.40;43.07;99340.72;5063413;28;20048;-65
2021/04/02 11:44:41;;;;;;;8.88;8.07;;;;;;;11.30;43.75;99332.22;5060295;28;20049;-66